Leni P. — A8XW5 — position and weather

sailwx.info

Track history (hours):
 
Tides and Currents Weather Stations Pressure Air Temp Water Temp Dewpoint Dewpoint Depression Visibility Wind Speed Wind Dir Waves Ship Positions

Leni P.

Last reported at 2016-Feb-08 08:22 UTC. Time now 2016-Feb-09 11:47 UTC.
Position N 37°34' E 020°20'.

Length 274 m; draft 9 m.

Type: Tanker. MMSI: 636014986.

Date/timePositionNaut miles runAvg speedWind from/ knotsBaromVisibWave heightAir tempDewpointWater temp
2016-Feb-08 08:22N 37°34' E 020°20'1012.2
2016-Feb-08 07:32N 37°41' E 020°11'3812.0
2016-Feb-08 04:21N 38°15' E 019°50'51111.7
2016-Feb-06 08:33N 45°08' E 013°06'1212.3
2016-Feb-06 07:33N 45°19' E 013°01'1211.6
2016-Feb-06 06:33N 45°30' E 013°07'1312.9
2016-Feb-06 05:33N 45°35' E 013°24'9 0.2
2016-Feb-04 15:16N 45°37' E 013°36'7 8.8
2016-Feb-04 14:28N 45°33' E 013°28'7 7.1
2016-Feb-04 13:25N 45°29' E 013°19'1011.6
2016-Feb-04 12:33N 45°26' E 013°05'10 9.9
2016-Feb-04 11:33N 45°22' E 012°52'1 0.5
2016-Feb-04 10:28N 45°22' E 012°52'0 0.1
2016-Feb-04 09:31N 45°22' E 012°52'0 0.0
2016-Feb-04 08:28N 45°22' E 012°52'0 0.0
2016-Feb-04 07:32N 45°22' E 012°52'0 0.0
2016-Feb-04 06:28N 45°22' E 012°52'0 0.1
2016-Feb-04 05:31N 45°22' E 012°52'0 0.1
2016-Feb-04 04:31N 45°22' E 012°52'0 0.0
2016-Feb-04 03:31N 45°22' E 012°52'0 0.2
2016-Feb-04 02:31N 45°22' E 012°51'0 0.0
2016-Feb-04 01:28N 45°22' E 012°51'0 0.0
2016-Feb-04 00:31N 45°22' E 012°51'0 0.0
2016-Feb-03 23:31N 45°22' E 012°51'0 0.0
2016-Feb-03 22:31N 45°22' E 012°51'0 0.0
2016-Feb-03 21:31N 45°22' E 012°52'0 0.0
2016-Feb-03 20:28N 45°22' E 012°52'0 0.0
2016-Feb-03 19:32N 45°22' E 012°52'0 0.0
2016-Feb-03 18:31N 45°22' E 012°52'0 0.1
2016-Feb-03 17:31N 45°22' E 012°52'0 0.0
2016-Feb-03 16:31N 45°22' E 012°52'0 0.0
2016-Feb-03 15:31N 45°22' E 012°52'0 0.1
2016-Feb-03 14:31N 45°22' E 012°52'0 0.0
2016-Feb-03 13:31N 45°22' E 012°52'0 0.0
2016-Feb-03 12:28N 45°22' E 012°52'0 0.1
2016-Feb-03 11:19N 45°22' E 012°52'0 0.0
2016-Feb-03 09:32N 45°22' E 012°52'0 0.0
2016-Feb-03 08:31N 45°22' E 012°52'0 0.0
2016-Feb-03 07:29N 45°22' E 012°52'0 0.0
2016-Feb-03 06:31N 45°22' E 012°52'0 0.0
2016-Feb-03 05:31N 45°22' E 012°52'0 0.0
2016-Feb-03 04:31N 45°22' E 012°52'0 0.0
2016-Feb-03 03:32N 45°22' E 012°52'0 0.0
2016-Feb-03 02:31N 45°22' E 012°52'0 0.0
2016-Feb-03 01:31N 45°22' E 012°52'0 0.0
2016-Feb-03 00:32N 45°22' E 012°52'0 0.1
2016-Feb-02 23:31N 45°22' E 012°52'0 0.1
2016-Feb-02 22:31N 45°22' E 012°52'0 0.0
2016-Feb-02 21:31N 45°22' E 012°52'0 0.0
2016-Feb-02 20:31N 45°22' E 012°52'0 0.0
2016-Feb-02 19:31N 45°22' E 012°52'0 0.0
2016-Feb-02 18:28N 45°22' E 012°52'0 0.0
2016-Feb-02 17:31N 45°22' E 012°52'0 0.1
2016-Feb-02 16:31N 45°22' E 012°52'0 0.0
2016-Feb-02 15:31N 45°22' E 012°52'0 0.0
2016-Feb-02 14:31N 45°22' E 012°52'0 0.1
2016-Feb-02 13:31N 45°22' E 012°52'0 0.1
2016-Feb-02 12:31N 45°22' E 012°52'0 0.1
2016-Feb-02 11:31N 45°22' E 012°52'0 0.1
2016-Feb-02 10:31N 45°22' E 012°52'0 0.0
2016-Feb-02 09:25N 45°22' E 012°52'0 0.1
2016-Feb-02 08:31N 45°22' E 012°52'0 0.0
2016-Feb-02 00:31N 45°22' E 012°52'0 0.0
2016-Feb-01 23:31N 45°22' E 012°52'0 0.0
2016-Feb-01 22:28N 45°22' E 012°52'0 0.0
2016-Feb-01 21:25N 45°22' E 012°52'0 0.0
2016-Feb-01 20:28N 45°22' E 012°52'0 0.0
2016-Feb-01 19:31N 45°22' E 012°52'0 0.0
2016-Feb-01 18:31N 45°22' E 012°52'0 0.0
2016-Feb-01 17:31N 45°22' E 012°52'0 0.0
2016-Feb-01 16:31N 45°22' E 012°52'0 0.0
2016-Feb-01 15:31N 45°22' E 012°52'0 0.0
2016-Feb-01 14:25N 45°22' E 012°52'0 0.0
2016-Feb-01 13:28N 45°22' E 012°52'0 0.0
2016-Feb-01 12:31N 45°22' E 012°52'0 0.1
2016-Feb-01 11:31N 45°22' E 012°52'0 0.1
2016-Feb-01 10:28N 45°22' E 012°52'0 0.0
2016-Feb-01 09:28N 45°22' E 012°52'0 0.0
2016-Feb-01 08:31N 45°22' E 012°52'0 0.1
2016-Feb-01 07:31N 45°22' E 012°52'0 0.0
2016-Feb-01 06:32N 45°22' E 012°52'0 0.0
2016-Feb-01 05:31N 45°22' E 012°52'0 0.0
2016-Feb-01 04:32N 45°22' E 012°52'0 0.1
2016-Feb-01 03:28N 45°22' E 012°52'0 0.1
2016-Feb-01 02:31N 45°22' E 012°52'0 0.0
2016-Feb-01 01:31N 45°22' E 012°52'0 0.1
2016-Feb-01 00:31N 45°22' E 012°52'0 0.1
2016-Jan-31 23:31N 45°22' E 012°51'0 0.0
2016-Jan-31 22:31N 45°22' E 012°52'0 0.0
2016-Jan-31 21:31N 45°22' E 012°52'0 0.0
2016-Jan-31 20:31N 45°22' E 012°52'0 0.0
2016-Jan-31 19:31N 45°22' E 012°52'0 0.0
2016-Jan-31 18:31N 45°22' E 012°51'0 0.0
2016-Jan-31 17:31N 45°22' E 012°51'0 0.0
2016-Jan-31 16:32N 45°22' E 012°51'0 0.0
2016-Jan-31 15:31N 45°22' E 012°51'0 0.0
2016-Jan-31 14:31N 45°22' E 012°51'0 0.0
2016-Jan-31 13:29N 45°22' E 012°51'0 0.0
2016-Jan-31 12:28N 45°22' E 012°51'0 0.0
2016-Jan-31 11:31N 45°22' E 012°51'0 0.0
2016-Jan-31 09:31N 45°22' E 012°51'0 0.0
2016-Jan-31 08:31N 45°22' E 012°51'0 0.0
2016-Jan-30 22:16N 45°22' E 012°51'0 0.0
2016-Jan-30 21:28N 45°22' E 012°51'0 0.0
2016-Jan-30 20:28N 45°22' E 012°51'0 0.0
2016-Jan-30 19:31N 45°22' E 012°51'0 0.1
2016-Jan-30 18:31N 45°22' E 012°51'0 0.1
2016-Jan-30 17:31N 45°22' E 012°51'0 0.0
2016-Jan-30 16:25N 45°22' E 012°51'0 0.1
2016-Jan-30 15:31N 45°22' E 012°51'0 0.0
2016-Jan-30 14:31N 45°22' E 012°51'0 0.0
2016-Jan-30 13:31N 45°22' E 012°52'0 0.0
2016-Jan-30 12:31N 45°22' E 012°52'0 0.0
2016-Jan-30 11:31N 45°22' E 012°52'0 0.0
2016-Jan-30 10:31N 45°22' E 012°52'0 0.0
2016-Jan-30 09:31N 45°22' E 012°52'0 0.0
2016-Jan-30 08:31N 45°22' E 012°52'0 0.0
2016-Jan-30 07:31N 45°22' E 012°51'0 0.0
2016-Jan-30 06:31N 45°22' E 012°52'0 0.0
2016-Jan-30 05:31N 45°22' E 012°52'0 0.0
2016-Jan-30 04:31N 45°22' E 012°52'0 0.0
2016-Jan-30 03:31N 45°22' E 012°52'0 0.0
2016-Jan-30 02:31N 45°22' E 012°52'0 0.1
2016-Jan-30 01:31N 45°22' E 012°52'0 0.0
2016-Jan-30 00:28N 45°22' E 012°52'0 0.0
2016-Jan-29 23:19N 45°22' E 012°52'0 0.0
2016-Jan-29 22:31N 45°22' E 012°52'0 0.0
2016-Jan-29 21:31N 45°22' E 012°52'0 0.0
2016-Jan-29 20:31N 45°22' E 012°51'0 0.0
2016-Jan-29 19:31N 45°22' E 012°51'0 0.0
2016-Jan-29 18:31N 45°22' E 012°51'0 0.0
2016-Jan-29 17:25N 45°22' E 012°52'0 0.0
2016-Jan-29 16:31N 45°22' E 012°52'0 0.0
2016-Jan-29 15:31N 45°22' E 012°52'0 0.0
2016-Jan-29 14:31N 45°22' E 012°52'0 0.0
2016-Jan-29 13:31N 45°22' E 012°52'0 0.0
2016-Jan-29 12:31N 45°22' E 012°52'0 0.0
2016-Jan-29 11:25N 45°22' E 012°52'0 0.0
2016-Jan-29 10:19N 45°22' E 012°51'0 0.0
2016-Jan-29 09:31N 45°22' E 012°51'0 0.0
2016-Jan-29 08:31N 45°22' E 012°52'  
Track history (hours):
 
Tides and Currents Weather Stations Pressure Air Temp Water Temp Dewpoint Dewpoint Depression Visibility Wind Speed Wind Dir Waves Ship Positions

Leni P.

Last reported at 2016-Feb-08 08:22 UTC. Time now 2016-Feb-09 11:47 UTC.
Position N 37°34' E 020°20'.

Length 274 m; draft 9 m.

Type: Tanker. MMSI: 636014986.

Date/timePositionNaut miles runAvg speedWind from/ knotsBaromVisibWave heightAir tempDewpointWater temp
2016-Feb-08 08:22N 37°34' E 020°20'1012.2
2016-Feb-08 07:32N 37°41' E 020°11'3812.0
2016-Feb-08 04:21N 38°15' E 019°50'51111.7
2016-Feb-06 08:33N 45°08' E 013°06'1212.3
2016-Feb-06 07:33N 45°19' E 013°01'1211.6
2016-Feb-06 06:33N 45°30' E 013°07'1312.9
2016-Feb-06 05:33N 45°35' E 013°24'9 0.2
2016-Feb-04 15:16N 45°37' E 013°36'7 8.8
2016-Feb-04 14:28N 45°33' E 013°28'7 7.1
2016-Feb-04 13:25N 45°29' E 013°19'1011.6
2016-Feb-04 12:33N 45°26' E 013°05'10 9.9
2016-Feb-04 11:33N 45°22' E 012°52'1 0.5
2016-Feb-04 10:28N 45°22' E 012°52'0 0.1
2016-Feb-04 09:31N 45°22' E 012°52'0 0.0
2016-Feb-04 08:28N 45°22' E 012°52'0 0.0
2016-Feb-04 07:32N 45°22' E 012°52'0 0.0
2016-Feb-04 06:28N 45°22' E 012°52'0 0.1
2016-Feb-04 05:31N 45°22' E 012°52'0 0.1
2016-Feb-04 04:31N 45°22' E 012°52'0 0.0
2016-Feb-04 03:31N 45°22' E 012°52'0 0.2
2016-Feb-04 02:31N 45°22' E 012°51'0 0.0
2016-Feb-04 01:28N 45°22' E 012°51'0 0.0
2016-Feb-04 00:31N 45°22' E 012°51'0 0.0
2016-Feb-03 23:31N 45°22' E 012°51'0 0.0
2016-Feb-03 22:31N 45°22' E 012°51'0 0.0
2016-Feb-03 21:31N 45°22' E 012°52'0 0.0
2016-Feb-03 20:28N 45°22' E 012°52'0 0.0
2016-Feb-03 19:32N 45°22' E 012°52'0 0.0
2016-Feb-03 18:31N 45°22' E 012°52'0 0.1
2016-Feb-03 17:31N 45°22' E 012°52'0 0.0
2016-Feb-03 16:31N 45°22' E 012°52'0 0.0
2016-Feb-03 15:31N 45°22' E 012°52'0 0.1
2016-Feb-03 14:31N 45°22' E 012°52'0 0.0
2016-Feb-03 13:31N 45°22' E 012°52'0 0.0
2016-Feb-03 12:28N 45°22' E 012°52'0 0.1
2016-Feb-03 11:19N 45°22' E 012°52'0 0.0
2016-Feb-03 09:32N 45°22' E 012°52'0 0.0
2016-Feb-03 08:31N 45°22' E 012°52'0 0.0
2016-Feb-03 07:29N 45°22' E 012°52'0 0.0
2016-Feb-03 06:31N 45°22' E 012°52'0 0.0
2016-Feb-03 05:31N 45°22' E 012°52'0 0.0
2016-Feb-03 04:31N 45°22' E 012°52'0 0.0
2016-Feb-03 03:32N 45°22' E 012°52'0 0.0
2016-Feb-03 02:31N 45°22' E 012°52'0 0.0
2016-Feb-03 01:31N 45°22' E 012°52'0 0.0
2016-Feb-03 00:32N 45°22' E 012°52'0 0.1
2016-Feb-02 23:31N 45°22' E 012°52'0 0.1
2016-Feb-02 22:31N 45°22' E 012°52'0 0.0
2016-Feb-02 21:31N 45°22' E 012°52'0 0.0
2016-Feb-02 20:31N 45°22' E 012°52'0 0.0
2016-Feb-02 19:31N 45°22' E 012°52'0 0.0
2016-Feb-02 18:28N 45°22' E 012°52'0 0.0
2016-Feb-02 17:31N 45°22' E 012°52'0 0.1
2016-Feb-02 16:31N 45°22' E 012°52'0 0.0
2016-Feb-02 15:31N 45°22' E 012°52'0 0.0
2016-Feb-02 14:31N 45°22' E 012°52'0 0.1
2016-Feb-02 13:31N 45°22' E 012°52'0 0.1
2016-Feb-02 12:31N 45°22' E 012°52'0 0.1
2016-Feb-02 11:31N 45°22' E 012°52'0 0.1
2016-Feb-02 10:31N 45°22' E 012°52'0 0.0
2016-Feb-02 09:25N 45°22' E 012°52'0 0.1
2016-Feb-02 08:31N 45°22' E 012°52'0 0.0
2016-Feb-02 00:31N 45°22' E 012°52'0 0.0
2016-Feb-01 23:31N 45°22' E 012°52'0 0.0
2016-Feb-01 22:28N 45°22' E 012°52'0 0.0
2016-Feb-01 21:25N 45°22' E 012°52'0 0.0
2016-Feb-01 20:28N 45°22' E 012°52'0 0.0
2016-Feb-01 19:31N 45°22' E 012°52'0 0.0
2016-Feb-01 18:31N 45°22' E 012°52'0 0.0
2016-Feb-01 17:31N 45°22' E 012°52'0 0.0
2016-Feb-01 16:31N 45°22' E 012°52'0 0.0
2016-Feb-01 15:31N 45°22' E 012°52'0 0.0
2016-Feb-01 14:25N 45°22' E 012°52'0 0.0
2016-Feb-01 13:28N 45°22' E 012°52'0 0.0
2016-Feb-01 12:31N 45°22' E 012°52'0 0.1
2016-Feb-01 11:31N 45°22' E 012°52'0 0.1
2016-Feb-01 10:28N 45°22' E 012°52'0 0.0
2016-Feb-01 09:28N 45°22' E 012°52'0 0.0
2016-Feb-01 08:31N 45°22' E 012°52'0 0.1
2016-Feb-01 07:31N 45°22' E 012°52'0 0.0
2016-Feb-01 06:32N 45°22' E 012°52'0 0.0
2016-Feb-01 05:31N 45°22' E 012°52'0 0.0
2016-Feb-01 04:32N 45°22' E 012°52'0 0.1
2016-Feb-01 03:28N 45°22' E 012°52'0 0.1
2016-Feb-01 02:31N 45°22' E 012°52'0 0.0
2016-Feb-01 01:31N 45°22' E 012°52'0 0.1
2016-Feb-01 00:31N 45°22' E 012°52'0 0.1
2016-Jan-31 23:31N 45°22' E 012°51'0 0.0
2016-Jan-31 22:31N 45°22' E 012°52'0 0.0
2016-Jan-31 21:31N 45°22' E 012°52'0 0.0
2016-Jan-31 20:31N 45°22' E 012°52'0 0.0
2016-Jan-31 19:31N 45°22' E 012°52'0 0.0
2016-Jan-31 18:31N 45°22' E 012°51'0 0.0
2016-Jan-31 17:31N 45°22' E 012°51'0 0.0
2016-Jan-31 16:32N 45°22' E 012°51'0 0.0
2016-Jan-31 15:31N 45°22' E 012°51'0 0.0
2016-Jan-31 14:31N 45°22' E 012°51'0 0.0
2016-Jan-31 13:29N 45°22' E 012°51'0 0.0
2016-Jan-31 12:28N 45°22' E 012°51'0 0.0
2016-Jan-31 11:31N 45°22' E 012°51'0 0.0
2016-Jan-31 09:31N 45°22' E 012°51'0 0.0
2016-Jan-31 08:31N 45°22' E 012°51'0 0.0
2016-Jan-30 22:16N 45°22' E 012°51'0 0.0
2016-Jan-30 21:28N 45°22' E 012°51'0 0.0
2016-Jan-30 20:28N 45°22' E 012°51'0 0.0
2016-Jan-30 19:31N 45°22' E 012°51'0 0.1
2016-Jan-30 18:31N 45°22' E 012°51'0 0.1
2016-Jan-30 17:31N 45°22' E 012°51'0 0.0
2016-Jan-30 16:25N 45°22' E 012°51'0 0.1
2016-Jan-30 15:31N 45°22' E 012°51'0 0.0
2016-Jan-30 14:31N 45°22' E 012°51'0 0.0
2016-Jan-30 13:31N 45°22' E 012°52'0 0.0
2016-Jan-30 12:31N 45°22' E 012°52'0 0.0
2016-Jan-30 11:31N 45°22' E 012°52'0 0.0
2016-Jan-30 10:31N 45°22' E 012°52'0 0.0
2016-Jan-30 09:31N 45°22' E 012°52'0 0.0
2016-Jan-30 08:31N 45°22' E 012°52'0 0.0
2016-Jan-30 07:31N 45°22' E 012°51'0 0.0
2016-Jan-30 06:31N 45°22' E 012°52'0 0.0
2016-Jan-30 05:31N 45°22' E 012°52'0 0.0
2016-Jan-30 04:31N 45°22' E 012°52'0 0.0
2016-Jan-30 03:31N 45°22' E 012°52'0 0.0
2016-Jan-30 02:31N 45°22' E 012°52'0 0.1
2016-Jan-30 01:31N 45°22' E 012°52'0 0.0
2016-Jan-30 00:28N 45°22' E 012°52'0 0.0
2016-Jan-29 23:19N 45°22' E 012°52'0 0.0
2016-Jan-29 22:31N 45°22' E 012°52'0 0.0
2016-Jan-29 21:31N 45°22' E 012°52'0 0.0
2016-Jan-29 20:31N 45°22' E 012°51'0 0.0
2016-Jan-29 19:31N 45°22' E 012°51'0 0.0
2016-Jan-29 18:31N 45°22' E 012°51'0 0.0
2016-Jan-29 17:25N 45°22' E 012°52'0 0.0
2016-Jan-29 16:31N 45°22' E 012°52'0 0.0
2016-Jan-29 15:31N 45°22' E 012°52'0 0.0
2016-Jan-29 14:31N 45°22' E 012°52'0 0.0
2016-Jan-29 13:31N 45°22' E 012°52'0 0.0
2016-Jan-29 12:31N 45°22' E 012°52'0 0.0
2016-Jan-29 11:25N 45°22' E 012°52'0 0.0
2016-Jan-29 10:19N 45°22' E 012°51'0 0.0
2016-Jan-29 09:31N 45°22' E 012°51'0 0.0
2016-Jan-29 08:31N 45°22' E 012°52'  

Dump ship's entire track history